Time;durP1;ratioP1;P1;durP2;ratioP2;P2;SDS_P1;SDS_P2;PMS_P1;PMS_P2;Temp;Humidity;BMP_temperature;BMP_pressure;BME280_temperature;BME280_humidity;BME280_pressure;Samples;Min_cycle;Max_cycle;Signal;HPM_P1;HPM_P2
2023/05/08 00:01:06;;;;;;;;;;;12.80;67.50;;;;;;5126391;27;19927;-76
2023/05/08 00:03:32;;;;;;;;;;;12.70;66.30;;;;;;5123578;27;19973;-77
2023/05/08 00:06:18;;;;;;;;;;;12.70;77.00;;;;;;5127688;27;20399;-77
2023/05/08 00:08:44;;;;;;;;;;;12.70;91.20;;;;;;5113518;27;19969;-77
2023/05/08 00:11:09;;;;;;;;;;;12.70;80.20;;;;;;5124065;27;19967;-77
2023/05/08 00:13:35;;;;;;;;;;;12.60;81.20;;;;;;5123001;27;19923;-76
2023/05/08 00:16:00;;;;;;;;;;;12.60;94.00;;;;;;5118500;27;19923;-78
2023/05/08 00:18:26;;;;;;;;;;;12.70;89.90;;;;;;5119367;27;19971;-77
2023/05/08 00:20:55;;;;;;;;;;;12.60;89.40;;;;;;5083130;27;19967;-78
2023/05/08 00:23:21;;;;;;;;;;;12.60;90.20;;;;;;5113845;27;21241;-77
2023/05/08 00:25:46;;;;;;;;;;;12.50;80.10;;;;;;5123707;27;19927;-76
2023/05/08 00:28:12;;;;;;;;;;;12.60;91.10;;;;;;5121882;27;19927;-77
2023/05/08 00:30:38;;;;;;;;;;;12.50;96.50;;;;;;5117553;27;20009;-77
2023/05/08 00:33:03;;;;;;;;;;;12.50;80.50;;;;;;5124464;27;19977;-77
2023/05/08 00:35:29;;;;;;;;;;;12.50;84.30;;;;;;5113415;27;19959;-76
2023/05/08 00:37:55;;;;;;;;;;;12.50;96.40;;;;;;5122161;27;19935;-77
2023/05/08 00:40:20;;;;;;;;;;;12.50;91.40;;;;;;5129120;27;20388;-76
2023/05/08 00:42:46;;;;;;;;;;;12.50;79.10;;;;;;5110367;27;19928;-76
2023/05/08 00:45:12;;;;;;;;;;;12.50;81.40;;;;;;5112711;28;19930;-80
2023/05/08 00:47:37;;;;;;;;;;;12.50;85.70;;;;;;5112723;28;19924;-76
2023/05/08 00:50:04;;;;;;;;;;;12.50;83.80;;;;;;5115575;27;19924;-77
2023/05/08 00:52:30;;;;;;;;;;;12.50;79.00;;;;;;5119536;28;19924;-76
2023/05/08 00:54:56;;;;;;;;;;;12.40;79.90;;;;;;5125221;28;20414;-77
2023/05/08 00:57:22;;;;;;;;;;;12.40;89.10;;;;;;5105099;28;19967;-75
2023/05/08 00:59:48;;;;;;;;;;;12.40;90.20;;;;;;5133823;27;20017;-77
2023/05/08 01:02:14;;;;;;;;;;;12.30;93.20;;;;;;5125139;27;19924;-80
2023/05/08 01:04:43;;;;;;;;;;;12.30;93.00;;;;;;5125614;27;19930;-76
2023/05/08 01:07:09;;;;;;;;;;;12.30;96.20;;;;;;5117773;27;19927;-77
2023/05/08 01:09:35;;;;;;;;;;;12.20;86.60;;;;;;5112527;28;20239;-77
2023/05/08 01:12:00;;;;;;;;;;;12.20;95.40;;;;;;5128853;28;19924;-76
2023/05/08 01:14:49;;;;;;;;;;;12.10;92.90;;;;;;5131275;27;19980;-76
2023/05/08 01:17:26;;;;;;;;;;;12.10;90.70;;;;;;5092455;27;19973;-77
2023/05/08 01:20:10;;;;;;;;;;;12.00;83.10;;;;;;5125570;27;19946;-76
2023/05/08 01:22:39;;;;;;;;;;;11.90;96.90;;;;;;5113340;27;19934;-77
2023/05/08 01:25:14;;;;;;;;;;;11.80;89.00;;;;;;5111666;28;20677;-76
2023/05/08 01:27:39;;;;;;;;;;;11.80;97.50;;;;;;5120662;27;19923;-76
2023/05/08 01:30:05;;;;;;;;;;;11.80;99.90;;;;;;5118008;27;20304;-77
2023/05/08 01:32:40;;;;;;;;;;;11.70;99.90;;;;;;5117470;27;19934;-78
2023/05/08 01:35:06;;;;;;;;;;;11.70;99.90;;;;;;5109172;27;19927;-77
2023/05/08 01:37:45;;;;;;;;;;;11.60;99.40;;;;;;5120830;27;19979;-77
2023/05/08 01:40:30;;;;;;;;;;;11.60;99.90;;;;;;5116672;27;21421;-77
2023/05/08 01:43:04;;;;;;;;;;;11.50;99.90;;;;;;5123297;27;19927;-80
2023/05/08 01:45:32;;;;;;;;;;;11.50;99.90;;;;;;5121128;27;19931;-76
2023/05/08 01:48:04;;;;;;;;;;;11.40;99.90;;;;;;5121700;27;19979;-78
2023/05/08 01:50:34;;;;;;;;;;;11.40;99.90;;;;;;5098275;27;19977;-77
2023/05/08 01:53:29;;;;;;;;;;;11.40;99.90;;;;;;5123058;27;19958;-80
2023/05/08 01:55:57;;;;;;;;;;;11.30;99.90;;;;;;5089410;27;20403;-76
2023/05/08 01:58:23;;;;;;;;;;;11.30;99.90;;;;;;5122930;27;19931;-81
2023/05/08 02:00:50;;;;;;;;;;;11.20;99.90;;;;;;5122664;27;20047;-76
2023/05/08 02:03:17;;;;;;;;;;;11.20;99.90;;;;;;5124130;27;19923;-77
2023/05/08 02:05:43;;;;;;;;;;;11.10;99.90;;;;;;5108628;27;20458;-76
2023/05/08 02:08:11;;;;;;;;;;;11.10;99.90;;;;;;5120995;27;19923;-78
2023/05/08 02:10:38;;;;;;;;;;;11.10;99.90;;;;;;5114799;27;19928;-76
2023/05/08 02:13:05;;;;;;;;;;;11.10;99.90;;;;;;5121953;27;19923;-78
2023/05/08 02:15:34;;;;;;;;;;;11.10;99.90;;;;;;5122056;27;19927;-78
2023/05/08 02:18:00;;;;;;;;;;;11.10;99.90;;;;;;5119922;27;19928;-79
2023/05/08 02:20:27;;;;;;;;;;;11.00;99.90;;;;;;5123304;27;19931;-78
2023/05/08 02:22:53;;;;;;;;;;;11.00;99.90;;;;;;5120366;27;19923;-76
2023/05/08 02:25:19;;;;;;;;;;;10.90;99.90;;;;;;5124031;27;19930;-75
2023/05/08 02:27:48;;;;;;;;;;;10.90;99.90;;;;;;5110398;27;21050;-79
2023/05/08 02:30:14;;;;;;;;;;;10.90;99.90;;;;;;5120652;27;19931;-77
2023/05/08 02:32:42;;;;;;;;;;;10.90;99.90;;;;;;5095509;27;20386;-77
2023/05/08 02:35:08;;;;;;;;;;;10.90;99.90;;;;;;5124282;27;19927;-77
2023/05/08 02:37:34;;;;;;;;;;;10.80;99.90;;;;;;5118757;27;20402;-79
2023/05/08 02:40:01;;;;;;;;;;;12.10;99.90;;;;;;5126077;27;19923;-76
2023/05/08 02:42:27;;;;;;;;;;;11.00;99.90;;;;;;5128680;27;19927;-80
2023/05/08 02:44:52;;;;;;;;;;;10.90;99.90;;;;;;5128146;27;20386;-76
2023/05/08 02:47:27;;;;;;;;;;;10.90;99.90;;;;;;5114610;27;19923;-76
2023/05/08 02:50:02;;;;;;;;;;;10.80;99.90;;;;;;5124654;27;19961;-76
2023/05/08 02:52:29;;;;;;;;;;;10.80;99.90;;;;;;5099096;27;19985;-80
2023/05/08 02:55:13;;;;;;;;;;;10.80;99.90;;;;;;5129154;27;20292;-77
2023/05/08 02:58:04;;;;;;;;;;;10.80;99.90;;;;;;5113694;27;19959;-75
2023/05/08 03:00:32;;;;;;;;;;;10.70;99.90;;;;;;5125810;27;19974;-76
2023/05/08 03:03:07;;;;;;;;;;;10.70;99.90;;;;;;5101478;27;19928;-76
2023/05/08 03:05:35;;;;;;;;;;;10.70;99.90;;;;;;5129756;27;20383;-76
2023/05/08 03:08:09;;;;;;;;;;;10.90;99.90;;;;;;5130071;27;19924;-76
2023/05/08 03:10:36;;;;;;;;;;;10.70;99.90;;;;;;5115647;27;20368;-75
2023/05/08 03:13:08;;;;;;;;;;;10.70;99.90;;;;;;5135363;27;20032;-76
2023/05/08 03:16:05;;;;;;;;;;;10.60;99.90;;;;;;5135073;27;19923;-75
2023/05/08 03:18:36;;;;;;;;;;;10.60;99.90;;;;;;5066279;27;19931;-78
2023/05/08 03:21:03;;;;;;;;;;;10.50;99.90;;;;;;5123732;27;20404;-76
2023/05/08 03:23:29;;;;;;;;;;;10.30;99.90;;;;;;5126438;27;19923;-76
2023/05/08 03:25:56;;;;;;;;;;;10.50;99.90;;;;;;5127063;27;19927;-76
2023/05/08 03:28:22;;;;;;;;;;;10.40;99.90;;;;;;5124809;27;19923;-76
2023/05/08 03:30:48;;;;;;;;;;;10.40;99.90;;;;;;5126342;27;19930;-75
2023/05/08 03:33:15;;;;;;;;;;;10.30;99.90;;;;;;5117493;27;19924;-79
2023/05/08 03:35:41;;;;;;;;;;;10.40;99.90;;;;;;5118892;27;19940;-76
2023/05/08 03:38:07;;;;;;;;;;;10.30;99.90;;;;;;5126158;27;19927;-77
2023/05/08 03:40:41;;;;;;;;;;;10.30;99.90;;;;;;5116889;27;19983;-76
2023/05/08 03:43:07;;;;;;;;;;;10.30;99.90;;;;;;5126583;27;20430;-76
2023/05/08 03:45:34;;;;;;;;;;;10.30;99.90;;;;;;5126477;27;20312;-77
2023/05/08 03:48:00;;;;;;;;;;;9.80;99.90;;;;;;5125671;27;19975;-77
2023/05/08 03:50:26;;;;;;;;;;;10.30;99.90;;;;;;5118431;27;19931;-77
2023/05/08 03:52:52;;;;;;;;;;;10.20;99.90;;;;;;5121589;27;19930;-77
2023/05/08 03:55:17;;;;;;;;;;;10.30;99.90;;;;;;5116228;27;20022;-76
2023/05/08 03:57:56;;;;;;;;;;;10.20;99.90;;;;;;5122533;27;19923;-77
2023/05/08 04:00:27;;;;;;;;;;;10.10;99.90;;;;;;5130417;27;19929;-76
2023/05/08 04:03:04;;;;;;;;;;;10.20;99.90;;;;;;5133177;27;20391;-76
2023/05/08 04:05:38;;;;;;;;;;;10.20;99.90;;;;;;5128182;27;19946;-77
2023/05/08 04:08:19;;;;;;;;;;;10.10;99.90;;;;;;5120649;27;19931;-76
2023/05/08 04:10:50;;;;;;;;;;;10.20;99.90;;;;;;5120324;27;20022;-76
2023/05/08 04:13:18;;;;;;;;;;;10.20;99.90;;;;;;5120935;27;20399;-76
2023/05/08 04:15:49;;;;;;;;;;;10.10;99.90;;;;;;5125518;27;19928;-76
2023/05/08 04:18:16;;;;;;;;;;;10.10;99.90;;;;;;5126752;27;20358;-77
2023/05/08 04:20:46;;;;;;;;;;;10.10;99.90;;;;;;5113787;27;19983;-80
2023/05/08 04:23:14;;;;;;;;;;;11.20;99.90;;;;;;5099552;27;20010;-76
2023/05/08 04:25:41;;;;;;;;;;;10.10;99.90;;;;;;5113889;27;19959;-76
2023/05/08 04:28:07;;;;;;;;;;;10.20;99.90;;;;;;5126969;27;20014;-76
2023/05/08 04:30:33;;;;;;;;;;;10.20;99.90;;;;;;5114549;27;20307;-80
2023/05/08 04:33:01;;;;;;;;;;;10.20;99.90;;;;;;5112842;27;20366;-77
2023/05/08 04:35:26;;;;;;;;;;;10.20;99.90;;;;;;5124468;27;20084;-78
2023/05/08 04:37:52;;;;;;;;;;;10.60;99.90;;;;;;5111117;27;20018;-77
2023/05/08 04:40:21;;;;;;;;;;;10.20;99.90;;;;;;5111200;27;20058;-77
2023/05/08 04:42:47;;;;;;;;;;;10.20;99.90;;;;;;5114718;27;19928;-76
2023/05/08 04:45:13;;;;;;;;;;;10.20;99.90;;;;;;5099589;27;20401;-76
2023/05/08 04:47:38;;;;;;;;;;;10.20;99.90;;;;;;5124742;27;20032;-75
2023/05/08 04:50:04;;;;;;;;;;;10.30;99.90;;;;;;5127100;27;19924;-75
2023/05/08 04:52:30;;;;;;;;;;;10.30;99.90;;;;;;5121415;27;19982;-77
2023/05/08 04:54:56;;;;;;;;;;;10.30;99.90;;;;;;5114704;27;19927;-78
2023/05/08 04:57:25;;;;;;;;;;;10.30;99.90;;;;;;5111233;28;20367;-76
2023/05/08 04:59:52;;;;;;;;;;;10.30;99.90;;;;;;5121919;27;20028;-75
2023/05/08 05:02:20;;;;;;;;;;;10.40;99.90;;;;;;5119674;27;20340;-77
2023/05/08 05:04:46;;;;;;;;;;;10.40;99.90;;;;;;5126446;28;19927;-76
2023/05/08 05:07:12;;;;;;;;;;;10.40;99.90;;;;;;5117413;27;19934;-76
2023/05/08 05:09:38;;;;;;;;;;;10.80;99.90;;;;;;5098517;27;19963;-77
2023/05/08 05:12:04;;;;;;;;;;;10.50;99.90;;;;;;5123621;27;19931;-80
2023/05/08 05:14:29;;;;;;;;;;;10.60;99.90;;;;;;5127174;27;20014;-77
2023/05/08 05:16:55;;;;;;;;;;;10.60;99.90;;;;;;5127354;27;20367;-77
2023/05/08 05:19:20;;;;;;;;;;;10.60;99.90;;;;;;5135954;27;19923;-77
2023/05/08 05:21:46;;;;;;;;;;;10.60;99.90;;;;;;5124766;27;19932;-80
2023/05/08 05:24:12;;;;;;;;;;;10.70;99.90;;;;;;5115339;27;19928;-76
2023/05/08 05:26:44;;;;;;;;;;;10.70;99.90;;;;;;5118443;27;20298;-77
2023/05/08 05:29:10;;;;;;;;;;;10.70;99.90;;;;;;5122130;27;19930;-77
2023/05/08 05:32:10;;;;;;;;;;;10.70;99.90;;;;;;5131965;27;20379;-77
2023/05/08 05:34:37;;;;;;;;;;;10.80;99.90;;;;;;5129459;27;19930;-76
2023/05/08 05:37:02;;;;;;;;;;;10.90;99.90;;;;;;5131231;27;20383;-75
2023/05/08 05:39:28;;;;;;;;;;;11.70;99.90;;;;;;5124880;27;19969;-76
2023/05/08 05:41:54;;;;;;;;;;;11.00;99.90;;;;;;5136203;27;19928;-76
2023/05/08 05:44:20;;;;;;;;;;;11.10;99.90;;;;;;5135305;27;20009;-76
2023/05/08 05:46:46;;;;;;;;;;;11.20;99.90;;;;;;5105258;28;19947;-76
2023/05/08 05:49:11;;;;;;;;;;;11.20;99.90;;;;;;5117453;27;19923;-76
2023/05/08 05:51:37;;;;;;;;;;;11.30;99.90;;;;;;5136982;27;19982;-75
2023/05/08 05:54:03;;;;;;;;;;;11.70;99.90;;;;;;5128518;27;19934;-76
2023/05/08 05:56:29;;;;;;;;;;;11.50;99.90;;;;;;5132492;27;19930;-76
2023/05/08 05:58:54;;;;;;;;;;;11.50;99.90;;;;;;5136254;27;20367;-76
2023/05/08 06:01:21;;;;;;;;;;;11.60;99.90;;;;;;5127931;27;19924;-75
2023/05/08 06:03:47;;;;;;;;;;;11.60;99.90;;;;;;5135310;27;19932;-76
2023/05/08 06:06:16;;;;;;;;;;;11.60;99.90;;;;;;5131224;27;19976;-75
2023/05/08 06:08:42;;;;;;;;;;;11.70;99.90;;;;;;5134569;27;20010;-75
2023/05/08 06:11:07;;;;;;;;;;;11.70;99.90;;;;;;5130992;27;20019;-76
2023/05/08 06:13:33;;;;;;;;;;;11.80;99.90;;;;;;5117118;27;19930;-75
2023/05/08 06:15:58;;;;;;;;;;;11.80;99.90;;;;;;5131070;27;19931;-77
2023/05/08 06:18:24;;;;;;;;;;;11.90;99.90;;;;;;5136257;27;19927;-76
2023/05/08 06:20:59;;;;;;;;;;;12.00;99.90;;;;;;5130842;27;19924;-76
2023/05/08 06:23:25;;;;;;;;;;;12.10;99.90;;;;;;5112958;27;19931;-76
2023/05/08 06:25:52;;;;;;;;;;;12.20;99.90;;;;;;5127570;27;19924;-81
2023/05/08 06:28:17;;;;;;;;;;;12.30;99.90;;;;;;5130352;27;19967;-77
2023/05/08 06:30:46;;;;;;;;;;;12.40;99.90;;;;;;5132847;27;20027;-75
2023/05/08 06:33:12;;;;;;;;;;;12.50;99.90;;;;;;5117730;27;20126;-77
2023/05/08 06:35:37;;;;;;;;;;;12.70;99.90;;;;;;5136129;27;19923;-75
2023/05/08 06:38:41;;;;;;;;;;;12.80;99.90;;;;;;5120237;27;19924;-77
2023/05/08 06:40:58;;;;;;;;;;;12.90;94.80;;;;;;5103227;27;19923;-75
2023/05/08 06:43:23;;;;;;;;;;;13.10;99.90;;;;;;5131570;27;19960;-76
2023/05/08 06:45:51;;;;;;;;;;;13.20;97.60;;;;;;5133064;27;19949;-75
2023/05/08 06:48:17;;;;;;;;;;;13.40;91.10;;;;;;5135380;27;20389;-77
2023/05/08 06:50:43;;;;;;;;;;;13.70;91.70;;;;;;5135874;27;19992;-76
2023/05/08 06:53:08;;;;;;;;;;;13.90;59.70;;;;;;5130902;27;19992;-76
2023/05/08 06:55:34;;;;;;;;;;;14.20;38.10;;;;;;5134720;27;19946;-76
2023/05/08 06:57:59;;;;;;;;;;;14.70;45.70;;;;;;5129314;27;19924;-76
2023/05/08 07:00:25;;;;;;;;;;;14.90;44.90;;;;;;5135141;27;19923;-76
2023/05/08 07:02:51;;;;;;;;;;;15.30;38.20;;;;;;5125478;27;19931;-76
2023/05/08 07:05:16;;;;;;;;;;;15.40;27.00;;;;;;5114888;28;20352;-76
2023/05/08 07:07:42;;;;;;;;;;;15.40;30.40;;;;;;5128685;27;19924;-75
2023/05/08 07:10:08;;;;;;;;;;;15.50;16.00;;;;;;5132746;27;19967;-76
2023/05/08 07:12:34;;;;;;;;;;;15.50;4.40;;;;;;5134123;27;19930;-75
2023/05/08 07:14:59;;;;;;;;;;;15.30;17.80;;;;;;5133952;27;20379;-75
2023/05/08 07:17:29;;;;;;;;;;;15.10;9.10;;;;;;5131951;27;19933;-78
2023/05/08 07:22:55;;;;;;;;;;;15.00;24.80;;;;;;5125068;27;19923;-77
2023/05/08 07:25:21;;;;;;;;;;;15.20;23.50;;;;;;5114306;28;19924;-76
2023/05/08 07:27:46;;;;;;;;;;;15.10;21.70;;;;;;5116154;27;19938;-76
2023/05/08 07:30:12;;;;;;;;;;;15.00;22.10;;;;;;5096283;28;19924;-76
2023/05/08 07:32:38;;;;;;;;;;;14.60;13.90;;;;;;5113366;28;19930;-78
2023/05/08 07:35:05;;;;;;;;;;;15.40;23.90;;;;;;5123124;27;19975;-77
2023/05/08 07:37:31;;;;;;;;;;;15.40;16.40;;;;;;5114193;27;19937;-75
2023/05/08 07:39:57;;;;;;;;;;;15.40;10.00;;;;;;5123969;27;20371;-75
2023/05/08 07:42:23;;;;;;;;;;;15.60;16.70;;;;;;5134255;27;19924;-76
2023/05/08 07:44:49;;;;;;;;;;;15.70;14.00;;;;;;5113609;27;19972;-75
2023/05/08 07:47:15;;;;;;;;;;;15.70;16.90;;;;;;5116214;27;20310;-75
2023/05/08 07:49:40;;;;;;;;;;;15.80;6.90;;;;;;5115459;27;19927;-76
2023/05/08 07:52:06;;;;;;;;;;;15.70;7.70;;;;;;5118691;27;19980;-76
2023/05/08 07:54:32;;;;;;;;;;;15.80;10.00;;;;;;5134614;27;19930;-76
2023/05/08 07:56:57;;;;;;;;;;;16.00;10.30;;;;;;5130953;27;19924;-77
2023/05/08 07:59:23;;;;;;;;;;;16.00;11.10;;;;;;5131745;27;19977;-76
2023/05/08 08:01:48;;;;;;;;;;;16.30;8.30;;;;;;5119443;27;19927;-75
2023/05/08 08:04:14;;;;;;;;;;;16.30;6.20;;;;;;5111656;28;19969;-75
2023/05/08 08:06:40;;;;;;;;;;;16.20;4.00;;;;;;5113598;28;19964;-76
2023/05/08 08:09:05;;;;;;;;;;;16.50;1.00;;;;;;5119199;27;19959;-75
2023/05/08 08:11:31;;;;;;;;;;;16.60;1.00;;;;;;5114540;27;20317;-76
2023/05/08 08:13:57;;;;;;;;;;;16.80;1.00;;;;;;5112298;28;19950;-76
2023/05/08 08:16:22;;;;;;;;;;;17.40;1.00;;;;;;5113729;28;19928;-76
2023/05/08 08:18:51;;;;;;;;;;;17.90;1.00;;;;;;5114560;27;19969;-76
2023/05/08 08:21:18;;;;;;;;;;;18.20;1.00;;;;;;5133340;27;19923;-76
2023/05/08 08:23:43;;;;;;;;;;;18.10;1.00;;;;;;5132802;27;20268;-76
2023/05/08 08:26:09;;;;;;;;;;;18.50;1.00;;;;;;5133817;27;19923;-76
2023/05/08 08:28:35;;;;;;;;;;;19.10;1.00;;;;;;5131862;27;20326;-77
2023/05/08 08:31:00;;;;;;;;;;;20.60;1.00;;;;;;5104791;27;19923;-77
2023/05/08 08:33:27;;;;;;;;;;;21.60;1.00;;;;;;5132622;27;19932;-77
2023/05/08 08:35:53;;;;;;;;;;;22.30;1.00;;;;;;5116278;27;20068;-78
2023/05/08 08:38:18;;;;;;;;;;;23.00;1.00;;;;;;5113483;27;20335;-78
2023/05/08 08:40:44;;;;;;;;;;;23.40;1.00;;;;;;5128420;27;19931;-76
2023/05/08 08:43:09;;;;;;;;;;;24.90;1.00;;;;;;5112816;28;19997;-76
2023/05/08 08:45:35;;;;;;;;;;;26.40;1.00;;;;;;5114909;27;19927;-77
2023/05/08 08:48:02;;;;;;;;;;;27.40;1.00;;;;;;5132687;27;19985;-77
2023/05/08 08:50:29;;;;;;;;;;;28.10;1.00;;;;;;5124228;27;20413;-77
2023/05/08 08:53:00;;;;;;;;;;;26.30;1.00;;;;;;5114548;27;19937;-78
2023/05/08 08:55:25;;;;;;;;;;;26.10;1.00;;;;;;5113222;28;19967;-78
2023/05/08 08:57:55;;;;;;;;;;;24.30;1.00;;;;;;5113482;28;20389;-76
2023/05/08 09:00:22;;;;;;;;;;;24.60;1.00;;;;;;5130932;27;19937;-77
2023/05/08 09:02:48;;;;;;;;;;;25.10;1.00;;;;;;5132132;28;19971;-76
2023/05/08 09:05:14;;;;;;;;;;;25.00;1.00;;;;;;5131999;27;19986;-77
2023/05/08 09:07:40;;;;;;;;;;;24.10;1.00;;;;;;5112374;28;19923;-77
2023/05/08 09:10:06;;;;;;;;;;;24.70;1.00;;;;;;5128117;27;20136;-76
2023/05/08 09:12:32;;;;;;;;;;;25.40;1.00;;;;;;5112461;28;19924;-77
2023/05/08 09:14:58;;;;;;;;;;;25.50;1.00;;;;;;5112243;28;19931;-76
2023/05/08 09:17:23;;;;;;;;;;;25.20;1.00;;;;;;5111333;28;19986;-76
2023/05/08 09:19:50;;;;;;;;;;;24.80;1.00;;;;;;5125080;28;19973;-77
2023/05/08 09:22:16;;;;;;;;;;;25.40;1.00;;;;;;5121037;27;19931;-80
2023/05/08 09:24:55;;;;;;;;;;;24.30;1.00;;;;;;5098549;28;20324;-77
2023/05/08 09:27:22;;;;;;;;;;;23.70;1.00;;;;;;5111256;28;19930;-78
2023/05/08 09:29:57;;;;;;;;;;;24.10;1.00;;;;;;5126621;28;19927;-77
2023/05/08 09:32:23;;;;;;;;;;;25.00;1.00;;;;;;5126395;28;19970;-76
2023/05/08 09:34:52;;;;;;;;;;;25.70;1.00;;;;;;5133247;28;19966;-77
2023/05/08 09:37:18;;;;;;;;;;;26.30;1.00;;;;;;5130680;28;19929;-77
2023/05/08 09:39:46;;;;;;;;;;;27.30;1.00;;;;;;5131933;28;19923;-78
2023/05/08 09:42:12;;;;;;;;;;;27.60;1.00;;;;;;5118547;28;19975;-77
2023/05/08 09:44:44;;;;;;;;;;;28.90;1.00;;;;;;5124742;28;19963;-77
2023/05/08 09:47:11;;;;;;;;;;;29.80;1.00;;;;;;5115110;28;20267;-77
2023/05/08 09:49:39;;;;;;;;;;;30.50;1.00;;;;;;5107400;28;20560;-77
2023/05/08 09:52:05;;;;;;;;;;;30.50;1.00;;;;;;5110681;28;20014;-77
2023/05/08 09:54:31;;;;;;;;;;;30.50;1.00;;;;;;5112875;28;19973;-77
2023/05/08 09:56:57;;;;;;;;;;;30.80;1.00;;;;;;5132020;28;19928;-77
2023/05/08 09:59:22;;;;;;;;;;;31.30;1.00;;;;;;5114566;28;19966;-76
2023/05/08 10:01:48;;;;;;;;;;;28.90;1.00;;;;;;5131692;27;20382;-80
2023/05/08 10:04:14;;;;;;;;;;;29.40;1.00;;;;;;5114619;27;19974;-76
2023/05/08 10:06:39;;;;;;;;;;;29.30;1.00;;;;;;5115474;28;19924;-77
2023/05/08 10:09:12;;;;;;;;;;;29.10;1.00;;;;;;5116046;27;20424;-77
2023/05/08 10:11:50;;;;;;;;;;;28.20;1.00;;;;;;5127791;27;19924;-78
2023/05/08 10:14:16;;;;;;;;;;;27.80;1.00;;;;;;5129011;27;20380;-77
2023/05/08 10:16:42;;;;;;;;;;;29.40;1.00;;;;;;5136193;27;19923;-76
2023/05/08 10:19:12;;;;;;;;;;;30.40;1.00;;;;;;5135343;27;19968;-77
2023/05/08 10:21:39;;;;;;;;;;;30.80;99.90;;;;;;5123400;27;19923;-76
2023/05/08 10:24:11;;;;;;;;;;;31.90;99.90;;;;;;5113651;27;19930;-77
2023/05/08 10:26:40;;;;;;;;;;;31.20;99.90;;;;;;5099112;27;19934;-77
2023/05/08 10:29:07;;;;;;;;;;;30.00;99.90;;;;;;5132987;27;19932;-78
2023/05/08 10:31:34;;;;;;;;;;;30.70;99.90;;;;;;5134823;27;19930;-77
2023/05/08 10:34:00;;;;;;;;;;;30.50;99.90;;;;;;5132623;27;19924;-77
2023/05/08 10:36:29;;;;;;;;;;;30.10;99.90;;;;;;5134681;27;20019;-77
2023/05/08 10:38:56;;;;;;;;;;;30.20;99.90;;;;;;5133989;27;19924;-77
2023/05/08 10:41:22;;;;;;;;;;;30.30;99.90;;;;;;5118246;27;20010;-77
2023/05/08 10:43:48;;;;;;;;;;;31.00;99.90;;;;;;5113615;28;19949;-77
2023/05/08 10:46:35;;;;;;;;;;;30.40;99.90;;;;;;5112491;27;20006;-77
2023/05/08 10:49:11;;;;;;;;;;;31.60;99.90;;;;;;5146265;27;19923;-77
2023/05/08 10:51:40;;;;;;;;;;;31.70;99.90;;;;;;5119382;27;19966;-76
2023/05/08 10:54:25;;;;;;;;;;;31.40;99.90;;;;;;5134100;27;19924;-77
2023/05/08 10:56:51;;;;;;;;;;;32.20;99.90;;;;;;5135289;27;19933;-81
2023/05/08 10:59:17;;;;;;;;;;;32.50;99.90;;;;;;5114897;27;20006;-78
2023/05/08 11:01:46;;;;;;;;;;;31.50;99.90;;;;;;5128368;27;19969;-77
2023/05/08 11:04:23;;;;;;;;;;;31.40;99.90;;;;;;5130294;27;20275;-77
2023/05/08 11:06:51;;;;;;;;;;;31.00;99.90;;;;;;5132087;27;20299;-79
2023/05/08 11:09:21;;;;;;;;;;;31.60;99.90;;;;;;5115687;27;19923;-76
2023/05/08 11:11:53;;;;;;;;;;;31.20;99.90;;;;;;5114884;27;20022;-77
2023/05/08 11:14:20;;;;;;;;;;;31.20;99.90;;;;;;5134292;27;19928;-77
2023/05/08 11:17:04;;;;;;;;;;;31.40;99.90;;;;;;5124272;27;19924;-77
2023/05/08 11:19:29;;;;;;;;;;;32.40;99.90;;;;;;5112706;27;19992;-78
2023/05/08 11:22:14;;;;;;;;;;;32.60;99.90;;;;;;5121109;27;20332;-80
2023/05/08 11:25:00;;;;;;;;;;;33.20;99.90;;;;;;5114346;28;19931;-77
2023/05/08 11:27:34;;;;;;;;;;;33.80;99.90;;;;;;5114963;27;19967;-77
2023/05/08 11:30:19;;;;;;;;;;;31.10;99.90;;;;;;5114475;28;19924;-78
2023/05/08 11:32:58;;;;;;;;;;;32.20;99.90;;;;;;5115985;27;19976;-77
2023/05/08 11:35:39;;;;;;;;;;;33.30;99.90;;;;;;5121440;27;20015;-78
2023/05/08 11:38:18;;;;;;;;;;;33.80;99.90;;;;;;5114039;27;19928;-77
2023/05/08 11:41:04;;;;;;;;;;;32.80;99.90;;;;;;5113215;28;20014;-77
2023/05/08 11:43:33;;;;;;;;;;;31.50;99.90;;;;;;5125847;27;20010;-76
2023/05/08 11:46:12;;;;;;;;;;;29.60;99.90;;;;;;5132486;27;19994;-78
2023/05/08 11:48:38;;;;;;;;;;;30.30;99.90;;;;;;5133991;27;19927;-77
2023/05/08 11:51:04;;;;;;;;;;;29.80;99.90;;;;;;5133526;27;19945;-76
2023/05/08 11:53:30;;;;;;;;;;;30.60;99.90;;;;;;5128553;27;19931;-77
2023/05/08 11:55:56;;;;;;;;;;;31.10;99.90;;;;;;5133578;27;19934;-78
2023/05/08 11:58:21;;;;;;;;;;;30.60;99.90;;;;;;5133265;27;19931;-77
2023/05/08 12:00:47;;;;;;;;;;;29.30;99.90;;;;;;5132965;27;19923;-77
2023/05/08 12:03:14;;;;;;;;;;;28.80;99.90;;;;;;5132098;27;19924;-79
2023/05/08 12:05:40;;;;;;;;;;;29.20;99.90;;;;;;5129281;27;19923;-77
2023/05/08 12:08:06;;;;;;;;;;;29.40;99.90;;;;;;5132444;27;20394;-76
2023/05/08 12:10:39;;;;;;;;;;;29.60;99.90;;;;;;5133213;27;19927;-77
2023/05/08 12:13:14;;;;;;;;;;;29.10;99.90;;;;;;5133238;27;20261;-77
2023/05/08 12:15:40;;;;;;;;;;;28.20;99.90;;;;;;5117982;27;19924;-78
2023/05/08 12:18:05;;;;;;;;;;;28.00;99.90;;;;;;5124674;27;20272;-78
2023/05/08 12:20:31;;;;;;;;;;;27.30;99.90;;;;;;5078231;28;20018;-77
2023/05/08 12:22:56;;;;;;;;;;;26.80;99.90;;;;;;5110207;28;19981;-76
2023/05/08 12:25:24;;;;;;;;;;;26.60;99.90;;;;;;5113990;28;20026;-76
2023/05/08 12:27:50;;;;;;;;;;;26.40;99.90;;;;;;5122785;27;20391;-77
2023/05/08 12:30:15;;;;;;;;;;;25.90;99.90;;;;;;5133805;27;19927;-76
2023/05/08 12:32:41;;;;;;;;;;;25.90;99.90;;;;;;5121790;27;19923;-77
2023/05/08 12:35:08;;;;;;;;;;;25.70;99.90;;;;;;5111486;28;19927;-77
2023/05/08 12:37:33;;;;;;;;;;;25.70;99.90;;;;;;5112074;28;20380;-76
2023/05/08 12:39:59;;;;;;;;;;;25.30;99.90;;;;;;5112828;27;19976;-77
2023/05/08 12:42:44;;;;;;;;;;;25.20;1.00;;;;;;5116797;27;20356;-77
2023/05/08 12:45:17;;;;;;;;;;;24.90;99.90;;;;;;5130396;27;20208;-77
2023/05/08 12:47:51;;;;;;;;;;;24.30;99.90;;;;;;5132108;27;19930;-78
2023/05/08 12:50:17;;;;;;;;;;;24.30;1.00;;;;;;5118734;27;19977;-77
2023/05/08 12:52:43;;;;;;;;;;;24.50;1.00;;;;;;5111075;28;20429;-82
2023/05/08 12:55:25;;;;;;;;;;;24.20;1.00;;;;;;5113004;28;19928;-77
2023/05/08 12:58:00;;;;;;;;;;;24.20;1.00;;;;;;5108162;28;20372;-77
2023/05/08 13:00:33;;;;;;;;;;;24.50;1.00;;;;;;5112030;28;19923;-76
2023/05/08 13:02:59;;;;;;;;;;;24.70;1.00;;;;;;5112625;28;19923;-77
2023/05/08 13:05:24;;;;;;;;;;;24.20;1.00;;;;;;5116967;28;19929;-81
2023/05/08 13:07:50;;;;;;;;;;;24.20;1.00;;;;;;5128125;28;19932;-77
2023/05/08 13:10:17;;;;;;;;;;;24.10;1.00;;;;;;5113558;28;20142;-77
2023/05/08 13:12:46;;;;;;;;;;;24.20;1.00;;;;;;5120492;28;20383;-77
2023/05/08 13:15:12;;;;;;;;;;;24.40;1.00;;;;;;5111271;28;19930;-77
2023/05/08 13:17:37;;;;;;;;;;;24.20;1.00;;;;;;5131348;28;19923;-77
2023/05/08 13:20:03;;;;;;;;;;;24.30;1.00;;;;;;5132988;27;20448;-77
2023/05/08 13:22:29;;;;;;;;;;;24.40;1.00;;;;;;5131281;28;19976;-78
2023/05/08 13:24:55;;;;;;;;;;;24.20;1.00;;;;;;5133171;27;20427;-78
2023/05/08 13:27:20;;;;;;;;;;;24.10;1.00;;;;;;5116766;28;20023;-76
2023/05/08 13:29:46;;;;;;;;;;;24.10;1.00;;;;;;5131732;28;20022;-77
2023/05/08 13:32:12;;;;;;;;;;;24.00;1.00;;;;;;5132753;28;19932;-77
2023/05/08 13:34:37;;;;;;;;;;;23.70;1.00;;;;;;5119095;28;19924;-77
2023/05/08 13:37:03;;;;;;;;;;;23.90;1.00;;;;;;5129003;27;19923;-77
2023/05/08 13:39:31;;;;;;;;;;;23.70;1.00;;;;;;5133379;27;19971;-77
2023/05/08 13:41:57;;;;;;;;;;;23.80;1.00;;;;;;5136513;27;20383;-78
2023/05/08 13:44:23;;;;;;;;;;;23.60;1.00;;;;;;5134638;27;19951;-77
2023/05/08 13:46:49;;;;;;;;;;;23.60;1.00;;;;;;5135533;27;19931;-77
2023/05/08 13:49:14;;;;;;;;;;;23.40;1.00;;;;;;5114811;27;19924;-77
2023/05/08 13:51:40;;;;;;;;;;;23.40;1.00;;;;;;5129358;27;19931;-77
2023/05/08 13:54:05;;;;;;;;;;;23.50;1.00;;;;;;5114571;27;19924;-77
2023/05/08 13:56:31;;;;;;;;;;;23.50;1.00;;;;;;5115524;27;19924;-77
2023/05/08 13:58:56;;;;;;;;;;;23.60;1.00;;;;;;5136572;27;19927;-77
2023/05/08 14:01:22;;;;;;;;;;;23.40;1.00;;;;;;5124727;27;20418;-77
2023/05/08 14:03:48;;;;;;;;;;;23.50;1.00;;;;;;5115047;28;20359;-76
2023/05/08 14:06:13;;;;;;;;;;;23.70;1.00;;;;;;5125615;27;19923;-77
2023/05/08 14:08:39;;;;;;;;;;;24.00;1.00;;;;;;5122448;27;19924;-77
2023/05/08 14:11:04;;;;;;;;;;;24.30;1.00;;;;;;5115630;28;19989;-77
2023/05/08 14:13:30;;;;;;;;;;;24.30;1.00;;;;;;5114924;27;20018;-77
2023/05/08 14:15:55;;;;;;;;;;;24.10;1.00;;;;;;5128580;27;20368;-76
2023/05/08 14:18:21;;;;;;;;;;;24.00;1.00;;;;;;5115276;27;19931;-77
2023/05/08 14:20:47;;;;;;;;;;;23.80;1.00;;;;;;5131953;27;20647;-76
2023/05/08 14:23:12;;;;;;;;;;;23.70;1.00;;;;;;5134996;27;19927;-75
2023/05/08 14:25:38;;;;;;;;;;;23.50;1.00;;;;;;5135509;27;19957;-76
2023/05/08 14:28:03;;;;;;;;;;;23.50;1.00;;;;;;5132510;27;19967;-76
2023/05/08 14:30:29;;;;;;;;;;;23.20;1.00;;;;;;5122324;27;20349;-76